sensor_id;sensor_type;location;lat;lon;timestamp;P1;durP1;ratioP1;P2;durP2;ratioP2
8596;SDS011;4336;49.310;8.646;2023-04-09T00:01:49;14.77;;;13.37;;
8596;SDS011;4336;49.310;8.646;2023-04-09T00:04:15;16.13;;;14.53;;
8596;SDS011;4336;49.310;8.646;2023-04-09T00:06:41;19.07;;;17.20;;
8596;SDS011;4336;49.310;8.646;2023-04-09T00:09:07;19.40;;;17.30;;
8596;SDS011;4336;49.310;8.646;2023-04-09T00:11:33;16.87;;;15.27;;
8596;SDS011;4336;49.310;8.646;2023-04-09T00:14:00;14.77;;;13.27;;
8596;SDS011;4336;49.310;8.646;2023-04-09T00:16:26;19.07;;;17.27;;
8596;SDS011;4336;49.310;8.646;2023-04-09T00:18:52;16.67;;;15.07;;
8596;SDS011;4336;49.310;8.646;2023-04-09T00:21:19;16.53;;;14.83;;
8596;SDS011;4336;49.310;8.646;2023-04-09T00:23:45;16.37;;;14.87;;
8596;SDS011;4336;49.310;8.646;2023-04-09T00:26:11;17.20;;;15.50;;
8596;SDS011;4336;49.310;8.646;2023-04-09T00:28:38;17.33;;;15.53;;
8596;SDS011;4336;49.310;8.646;2023-04-09T00:31:04;17.43;;;15.80;;
8596;SDS011;4336;49.310;8.646;2023-04-09T00:33:30;17.87;;;16.17;;
8596;SDS011;4336;49.310;8.646;2023-04-09T00:35:57;17.60;;;15.80;;
8596;SDS011;4336;49.310;8.646;2023-04-09T00:38:23;18.33;;;16.43;;
8596;SDS011;4336;49.310;8.646;2023-04-09T00:40:49;16.90;;;15.30;;
8596;SDS011;4336;49.310;8.646;2023-04-09T00:43:16;18.03;;;16.33;;
8596;SDS011;4336;49.310;8.646;2023-04-09T00:45:43;19.00;;;17.10;;
8596;SDS011;4336;49.310;8.646;2023-04-09T00:48:10;19.17;;;17.27;;
8596;SDS011;4336;49.310;8.646;2023-04-09T00:50:36;18.93;;;17.03;;
8596;SDS011;4336;49.310;8.646;2023-04-09T00:53:03;15.73;;;14.13;;
8596;SDS011;4336;49.310;8.646;2023-04-09T00:55:30;20.00;;;17.90;;
8596;SDS011;4336;49.310;8.646;2023-04-09T00:57:56;20.43;;;18.33;;
8596;SDS011;4336;49.310;8.646;2023-04-09T01:00:22;19.30;;;17.40;;
8596;SDS011;4336;49.310;8.646;2023-04-09T01:02:49;18.07;;;16.37;;
8596;SDS011;4336;49.310;8.646;2023-04-09T01:05:18;19.07;;;17.17;;
8596;SDS011;4336;49.310;8.646;2023-04-09T01:07:52;20.07;;;17.97;;
8596;SDS011;4336;49.310;8.646;2023-04-09T01:10:33;19.20;;;17.10;;
8596;SDS011;4336;49.310;8.646;2023-04-09T01:13:22;18.80;;;17.00;;
8596;SDS011;4336;49.310;8.646;2023-04-09T01:15:53;17.03;;;15.33;;
8596;SDS011;4336;49.310;8.646;2023-04-09T01:18:22;20.30;;;18.37;;
8596;SDS011;4336;49.310;8.646;2023-04-09T01:28:48;19.43;;;17.53;;
8596;SDS011;4336;49.310;8.646;2023-04-09T01:31:17;18.80;;;16.90;;
8596;SDS011;4336;49.310;8.646;2023-04-09T01:33:43;19.63;;;17.73;;
8596;SDS011;4336;49.310;8.646;2023-04-09T01:36:10;17.57;;;15.13;;
8596;SDS011;4336;49.310;8.646;2023-04-09T01:38:39;19.67;;;17.67;;
8596;SDS011;4336;49.310;8.646;2023-04-09T01:41:06;19.93;;;18.03;;
8596;SDS011;4336;49.310;8.646;2023-04-09T01:43:33;19.90;;;17.80;;
8596;SDS011;4336;49.310;8.646;2023-04-09T01:46:00;19.83;;;17.83;;
8596;SDS011;4336;49.310;8.646;2023-04-09T01:48:28;19.87;;;17.97;;
8596;SDS011;4336;49.310;8.646;2023-04-09T01:50:55;21.03;;;18.90;;
8596;SDS011;4336;49.310;8.646;2023-04-09T01:53:21;16.87;;;15.17;;
8596;SDS011;4336;49.310;8.646;2023-04-09T01:55:47;19.00;;;17.10;;
8596;SDS011;4336;49.310;8.646;2023-04-09T01:58:13;20.17;;;18.27;;
8596;SDS011;4336;49.310;8.646;2023-04-09T02:00:44;20.00;;;18.00;;
8596;SDS011;4336;49.310;8.646;2023-04-09T02:03:15;19.57;;;17.57;;
8596;SDS011;4336;49.310;8.646;2023-04-09T02:05:45;20.27;;;17.97;;
8596;SDS011;4336;49.310;8.646;2023-04-09T02:08:14;21.10;;;18.93;;
8596;SDS011;4336;49.310;8.646;2023-04-09T02:10:42;19.93;;;17.93;;
8596;SDS011;4336;49.310;8.646;2023-04-09T02:13:16;20.80;;;18.77;;
8596;SDS011;4336;49.310;8.646;2023-04-09T02:15:43;20.10;;;18.07;;
8596;SDS011;4336;49.310;8.646;2023-04-09T02:18:23;19.90;;;17.93;;
8596;SDS011;4336;49.310;8.646;2023-04-09T02:20:51;17.93;;;16.13;;
8596;SDS011;4336;49.310;8.646;2023-04-09T02:23:18;19.30;;;17.30;;
8596;SDS011;4336;49.310;8.646;2023-04-09T02:25:44;20.50;;;18.50;;
8596;SDS011;4336;49.310;8.646;2023-04-09T02:28:11;19.67;;;17.73;;
8596;SDS011;4336;49.310;8.646;2023-04-09T02:30:37;20.83;;;18.63;;
8596;SDS011;4336;49.310;8.646;2023-04-09T02:33:03;18.87;;;16.93;;
8596;SDS011;4336;49.310;8.646;2023-04-09T02:35:29;20.80;;;18.60;;
8596;SDS011;4336;49.310;8.646;2023-04-09T02:37:55;20.90;;;18.80;;
8596;SDS011;4336;49.310;8.646;2023-04-09T02:40:25;19.93;;;17.93;;
8596;SDS011;4336;49.310;8.646;2023-04-09T02:42:54;21.70;;;19.43;;
8596;SDS011;4336;49.310;8.646;2023-04-09T02:45:20;19.30;;;17.30;;
8596;SDS011;4336;49.310;8.646;2023-04-09T02:47:46;20.50;;;18.50;;
8596;SDS011;4336;49.310;8.646;2023-04-09T02:50:12;21.67;;;19.47;;
8596;SDS011;4336;49.310;8.646;2023-04-09T02:52:45;20.33;;;18.33;;
8596;SDS011;4336;49.310;8.646;2023-04-09T02:55:12;21.83;;;19.63;;
8596;SDS011;4336;49.310;8.646;2023-04-09T02:57:38;21.20;;;19.00;;
8596;SDS011;4336;49.310;8.646;2023-04-09T03:00:05;21.80;;;19.50;;
8596;SDS011;4336;49.310;8.646;2023-04-09T03:02:31;20.33;;;18.23;;
8596;SDS011;4336;49.310;8.646;2023-04-09T03:04:57;21.33;;;19.23;;
8596;SDS011;4336;49.310;8.646;2023-04-09T03:07:24;21.67;;;19.47;;
8596;SDS011;4336;49.310;8.646;2023-04-09T03:09:50;21.47;;;19.27;;
8596;SDS011;4336;49.310;8.646;2023-04-09T03:12:16;21.40;;;19.23;;
8596;SDS011;4336;49.310;8.646;2023-04-09T03:14:42;21.97;;;19.77;;
8596;SDS011;4336;49.310;8.646;2023-04-09T03:17:08;21.60;;;19.40;;
8596;SDS011;4336;49.310;8.646;2023-04-09T03:19:35;22.57;;;20.27;;
8596;SDS011;4336;49.310;8.646;2023-04-09T03:22:01;22.80;;;20.50;;
8596;SDS011;4336;49.310;8.646;2023-04-09T03:24:30;22.70;;;20.43;;
8596;SDS011;4336;49.310;8.646;2023-04-09T03:27:00;21.00;;;18.90;;
8596;SDS011;4336;49.310;8.646;2023-04-09T03:29:27;21.60;;;19.40;;
8596;SDS011;4336;49.310;8.646;2023-04-09T03:31:53;20.77;;;18.53;;
8596;SDS011;4336;49.310;8.646;2023-04-09T03:34:19;22.17;;;19.97;;
8596;SDS011;4336;49.310;8.646;2023-04-09T03:36:50;22.90;;;20.57;;
8596;SDS011;4336;49.310;8.646;2023-04-09T03:39:25;22.80;;;20.60;;
8596;SDS011;4336;49.310;8.646;2023-04-09T03:41:55;23.60;;;21.20;;
8596;SDS011;4336;49.310;8.646;2023-04-09T03:44:22;22.70;;;20.50;;
8596;SDS011;4336;49.310;8.646;2023-04-09T03:47:00;23.07;;;20.57;;
8596;SDS011;4336;49.310;8.646;2023-04-09T03:49:27;22.17;;;19.83;;
8596;SDS011;4336;49.310;8.646;2023-04-09T03:51:58;24.27;;;21.67;;
8596;SDS011;4336;49.310;8.646;2023-04-09T03:54:32;24.33;;;21.73;;
8596;SDS011;4336;49.310;8.646;2023-04-09T03:56:59;23.77;;;21.27;;
8596;SDS011;4336;49.310;8.646;2023-04-09T03:59:28;23.63;;;21.23;;
8596;SDS011;4336;49.310;8.646;2023-04-09T04:01:54;22.07;;;19.23;;
8596;SDS011;4336;49.310;8.646;2023-04-09T04:04:20;23.97;;;20.70;;
8596;SDS011;4336;49.310;8.646;2023-04-09T04:06:51;23.20;;;20.90;;
8596;SDS011;4336;49.310;8.646;2023-04-09T04:09:37;23.57;;;21.03;;
8596;SDS011;4336;49.310;8.646;2023-04-09T04:12:09;22.63;;;20.23;;
8596;SDS011;4336;49.310;8.646;2023-04-09T04:14:57;23.07;;;20.77;;
8596;SDS011;4336;49.310;8.646;2023-04-09T04:17:34;22.63;;;20.23;;
8596;SDS011;4336;49.310;8.646;2023-04-09T04:20:04;22.50;;;20.20;;
8596;SDS011;4336;49.310;8.646;2023-04-09T04:22:35;23.43;;;21.03;;
8596;SDS011;4336;49.310;8.646;2023-04-09T04:25:03;26.40;;;23.27;;
8596;SDS011;4336;49.310;8.646;2023-04-09T04:27:29;24.10;;;21.57;;
8596;SDS011;4336;49.310;8.646;2023-04-09T04:29:56;24.37;;;21.87;;
8596;SDS011;4336;49.310;8.646;2023-04-09T04:32:44;22.53;;;20.07;;
8596;SDS011;4336;49.310;8.646;2023-04-09T04:35:10;24.17;;;21.67;;
8596;SDS011;4336;49.310;8.646;2023-04-09T04:37:37;23.87;;;21.43;;
8596;SDS011;4336;49.310;8.646;2023-04-09T04:40:08;25.30;;;22.73;;
8596;SDS011;4336;49.310;8.646;2023-04-09T04:42:38;24.77;;;22.27;;
8596;SDS011;4336;49.310;8.646;2023-04-09T04:45:09;25.00;;;22.40;;
8596;SDS011;4336;49.310;8.646;2023-04-09T04:47:41;23.87;;;21.30;;
8596;SDS011;4336;49.310;8.646;2023-04-09T04:50:08;24.10;;;21.60;;
8596;SDS011;4336;49.310;8.646;2023-04-09T04:52:48;26.13;;;23.43;;
8596;SDS011;4336;49.310;8.646;2023-04-09T04:55:15;24.93;;;22.33;;
8596;SDS011;4336;49.310;8.646;2023-04-09T04:57:41;25.60;;;23.00;;
8596;SDS011;4336;49.310;8.646;2023-04-09T05:00:08;28.67;;;23.73;;
8596;SDS011;4336;49.310;8.646;2023-04-09T05:02:35;25.47;;;22.77;;
8596;SDS011;4336;49.310;8.646;2023-04-09T05:05:23;26.20;;;23.47;;
8596;SDS011;4336;49.310;8.646;2023-04-09T05:07:52;26.27;;;23.57;;
8596;SDS011;4336;49.310;8.646;2023-04-09T05:10:19;26.73;;;23.87;;
8596;SDS011;4336;49.310;8.646;2023-04-09T05:12:46;24.63;;;22.03;;
8596;SDS011;4336;49.310;8.646;2023-04-09T05:15:19;26.47;;;23.73;;
8596;SDS011;4336;49.310;8.646;2023-04-09T05:17:45;25.93;;;23.23;;
8596;SDS011;4336;49.310;8.646;2023-04-09T05:20:13;26.43;;;23.73;;
8596;SDS011;4336;49.310;8.646;2023-04-09T05:22:52;23.93;;;21.03;;
8596;SDS011;4336;49.310;8.646;2023-04-09T05:25:25;25.60;;;22.93;;
8596;SDS011;4336;49.310;8.646;2023-04-09T05:27:51;26.77;;;24.00;;
8596;SDS011;4336;49.310;8.646;2023-04-09T05:30:17;26.47;;;23.67;;
8596;SDS011;4336;49.310;8.646;2023-04-09T05:32:45;27.07;;;24.33;;
8596;SDS011;4336;49.310;8.646;2023-04-09T05:35:12;27.30;;;24.40;;
8596;SDS011;4336;49.310;8.646;2023-04-09T05:37:42;28.00;;;23.73;;
8596;SDS011;4336;49.310;8.646;2023-04-09T05:40:08;28.30;;;24.97;;
8596;SDS011;4336;49.310;8.646;2023-04-09T05:42:35;27.37;;;24.47;;
8596;SDS011;4336;49.310;8.646;2023-04-09T05:45:11;27.73;;;24.30;;
8596;SDS011;4336;49.310;8.646;2023-04-09T05:47:45;26.20;;;23.40;;
8596;SDS011;4336;49.310;8.646;2023-04-09T05:50:17;26.77;;;24.07;;
8596;SDS011;4336;49.310;8.646;2023-04-09T05:52:43;27.53;;;24.63;;
8596;SDS011;4336;49.310;8.646;2023-04-09T05:55:11;26.97;;;24.10;;
8596;SDS011;4336;49.310;8.646;2023-04-09T05:57:45;25.23;;;22.50;;
8596;SDS011;4336;49.310;8.646;2023-04-09T06:00:12;28.10;;;25.20;;
8596;SDS011;4336;49.310;8.646;2023-04-09T06:02:42;26.87;;;24.13;;
8596;SDS011;4336;49.310;8.646;2023-04-09T06:05:08;28.20;;;23.53;;
8596;SDS011;4336;49.310;8.646;2023-04-09T06:07:35;26.80;;;23.97;;
8596;SDS011;4336;49.310;8.646;2023-04-09T06:10:02;26.73;;;23.83;;
8596;SDS011;4336;49.310;8.646;2023-04-09T06:12:28;25.77;;;23.07;;
8596;SDS011;4336;49.310;8.646;2023-04-09T06:14:54;25.13;;;22.43;;
8596;SDS011;4336;49.310;8.646;2023-04-09T06:17:20;27.00;;;24.27;;
8596;SDS011;4336;49.310;8.646;2023-04-09T06:19:46;27.03;;;24.23;;
8596;SDS011;4336;49.310;8.646;2023-04-09T06:22:12;26.70;;;23.97;;
8596;SDS011;4336;49.310;8.646;2023-04-09T06:24:38;26.93;;;24.13;;
8596;SDS011;4336;49.310;8.646;2023-04-09T06:27:04;26.70;;;23.90;;
8596;SDS011;4336;49.310;8.646;2023-04-09T06:29:31;27.93;;;25.03;;
8596;SDS011;4336;49.310;8.646;2023-04-09T06:31:58;26.47;;;23.77;;
8596;SDS011;4336;49.310;8.646;2023-04-09T06:34:24;26.40;;;23.63;;
8596;SDS011;4336;49.310;8.646;2023-04-09T06:36:50;26.87;;;24.17;;
8596;SDS011;4336;49.310;8.646;2023-04-09T06:39:16;26.90;;;24.00;;
8596;SDS011;4336;49.310;8.646;2023-04-09T06:41:42;27.83;;;24.93;;
8596;SDS011;4336;49.310;8.646;2023-04-09T06:44:21;25.23;;;22.73;;
8596;SDS011;4336;49.310;8.646;2023-04-09T06:46:48;26.63;;;23.90;;
8596;SDS011;4336;49.310;8.646;2023-04-09T06:49:15;25.97;;;23.37;;
8596;SDS011;4336;49.310;8.646;2023-04-09T06:51:41;26.77;;;23.97;;
8596;SDS011;4336;49.310;8.646;2023-04-09T06:54:07;24.73;;;21.63;;
8596;SDS011;4336;49.310;8.646;2023-04-09T06:56:33;26.60;;;23.90;;
8596;SDS011;4336;49.310;8.646;2023-04-09T06:58:59;27.13;;;24.23;;
8596;SDS011;4336;49.310;8.646;2023-04-09T07:01:25;26.10;;;23.50;;
8596;SDS011;4336;49.310;8.646;2023-04-09T07:03:52;27.20;;;24.50;;
8596;SDS011;4336;49.310;8.646;2023-04-09T07:06:18;24.20;;;21.70;;
8596;SDS011;4336;49.310;8.646;2023-04-09T07:08:44;26.43;;;23.67;;
8596;SDS011;4336;49.310;8.646;2023-04-09T07:11:11;26.10;;;23.40;;
8596;SDS011;4336;49.310;8.646;2023-04-09T07:13:37;24.80;;;22.33;;
8596;SDS011;4336;49.310;8.646;2023-04-09T07:16:03;26.07;;;23.47;;
8596;SDS011;4336;49.310;8.646;2023-04-09T07:18:30;25.47;;;22.90;;
8596;SDS011;4336;49.310;8.646;2023-04-09T07:20:56;25.63;;;22.97;;
8596;SDS011;4336;49.310;8.646;2023-04-09T07:23:22;25.03;;;22.00;;
8596;SDS011;4336;49.310;8.646;2023-04-09T07:25:48;25.90;;;23.20;;
8596;SDS011;4336;49.310;8.646;2023-04-09T07:28:14;25.53;;;22.80;;
8596;SDS011;4336;49.310;8.646;2023-04-09T07:30:40;23.77;;;21.37;;
8596;SDS011;4336;49.310;8.646;2023-04-09T07:33:07;24.97;;;22.43;;
8596;SDS011;4336;49.310;8.646;2023-04-09T07:35:33;26.50;;;23.80;;
8596;SDS011;4336;49.310;8.646;2023-04-09T07:37:59;22.80;;;20.50;;
8596;SDS011;4336;49.310;8.646;2023-04-09T07:40:25;23.43;;;21.13;;
8596;SDS011;4336;49.310;8.646;2023-04-09T07:42:51;24.60;;;22.20;;
8596;SDS011;4336;49.310;8.646;2023-04-09T07:45:18;23.40;;;21.03;;
8596;SDS011;4336;49.310;8.646;2023-04-09T07:47:44;24.97;;;22.37;;
8596;SDS011;4336;49.310;8.646;2023-04-09T07:50:10;24.90;;;22.50;;
8596;SDS011;4336;49.310;8.646;2023-04-09T07:52:37;24.27;;;21.70;;
8596;SDS011;4336;49.310;8.646;2023-04-09T07:55:03;24.50;;;22.10;;
8596;SDS011;4336;49.310;8.646;2023-04-09T07:57:30;24.93;;;22.53;;
8596;SDS011;4336;49.310;8.646;2023-04-09T07:59:57;24.83;;;22.30;;
8596;SDS011;4336;49.310;8.646;2023-04-09T08:02:23;23.07;;;20.77;;
8596;SDS011;4336;49.310;8.646;2023-04-09T08:04:49;25.17;;;22.67;;
8596;SDS011;4336;49.310;8.646;2023-04-09T08:07:15;24.47;;;21.93;;
8596;SDS011;4336;49.310;8.646;2023-04-09T08:09:42;24.23;;;21.83;;
8596;SDS011;4336;49.310;8.646;2023-04-09T08:12:08;24.70;;;22.27;;
8596;SDS011;4336;49.310;8.646;2023-04-09T08:14:35;24.70;;;22.30;;
8596;SDS011;4336;49.310;8.646;2023-04-09T08:17:01;24.80;;;22.27;;
8596;SDS011;4336;49.310;8.646;2023-04-09T08:19:27;25.47;;;22.97;;
8596;SDS011;4336;49.310;8.646;2023-04-09T08:21:53;23.50;;;21.23;;
8596;SDS011;4336;49.310;8.646;2023-04-09T08:24:20;24.10;;;21.80;;
8596;SDS011;4336;49.310;8.646;2023-04-09T08:26:47;23.67;;;21.37;;
8596;SDS011;4336;49.310;8.646;2023-04-09T08:29:13;24.60;;;22.10;;
8596;SDS011;4336;49.310;8.646;2023-04-09T08:31:40;24.73;;;22.40;;
8596;SDS011;4336;49.310;8.646;2023-04-09T08:34:06;22.07;;;19.97;;
8596;SDS011;4336;49.310;8.646;2023-04-09T08:36:32;22.40;;;20.20;;
8596;SDS011;4336;49.310;8.646;2023-04-09T08:39:00;23.23;;;20.77;;
8596;SDS011;4336;49.310;8.646;2023-04-09T08:41:26;20.17;;;18.27;;
8596;SDS011;4336;49.310;8.646;2023-04-09T08:43:53;21.47;;;19.50;;
8596;SDS011;4336;49.310;8.646;2023-04-09T08:46:19;20.97;;;18.97;;
8596;SDS011;4336;49.310;8.646;2023-04-09T08:48:46;21.77;;;19.57;;
8596;SDS011;4336;49.310;8.646;2023-04-09T08:51:13;21.57;;;19.60;;
8596;SDS011;4336;49.310;8.646;2023-04-09T08:53:41;21.77;;;19.57;;
8596;SDS011;4336;49.310;8.646;2023-04-09T08:56:08;21.77;;;19.77;;
8596;SDS011;4336;49.310;8.646;2023-04-09T08:58:34;20.87;;;18.97;;
8596;SDS011;4336;49.310;8.646;2023-04-09T09:01:00;20.60;;;18.70;;
8596;SDS011;4336;49.310;8.646;2023-04-09T09:03:27;22.07;;;20.00;;
8596;SDS011;4336;49.310;8.646;2023-04-09T09:05:53;19.10;;;17.17;;
8596;SDS011;4336;49.310;8.646;2023-04-09T09:08:23;17.50;;;15.90;;
8596;SDS011;4336;49.310;8.646;2023-04-09T09:10:49;20.23;;;18.27;;
8596;SDS011;4336;49.310;8.646;2023-04-09T09:13:26;19.37;;;17.67;;
8596;SDS011;4336;49.310;8.646;2023-04-09T09:15:53;19.23;;;17.33;;
8596;SDS011;4336;49.310;8.646;2023-04-09T09:18:21;17.00;;;15.30;;
8596;SDS011;4336;49.310;8.646;2023-04-09T09:21:20;17.43;;;15.83;;
8596;SDS011;4336;49.310;8.646;2023-04-09T09:23:46;17.77;;;16.17;;
8596;SDS011;4336;49.310;8.646;2023-04-09T09:26:15;16.47;;;15.07;;
8596;SDS011;4336;49.310;8.646;2023-04-09T09:28:42;16.30;;;14.90;;
8596;SDS011;4336;49.310;8.646;2023-04-09T09:31:10;16.60;;;15.10;;
8596;SDS011;4336;49.310;8.646;2023-04-09T09:33:36;14.83;;;13.57;;
8596;SDS011;4336;49.310;8.646;2023-04-09T09:36:02;15.03;;;13.73;;
8596;SDS011;4336;49.310;8.646;2023-04-09T09:38:29;16.30;;;14.90;;
8596;SDS011;4336;49.310;8.646;2023-04-09T09:40:55;16.40;;;15.00;;
8596;SDS011;4336;49.310;8.646;2023-04-09T09:43:21;16.37;;;14.97;;
8596;SDS011;4336;49.310;8.646;2023-04-09T09:45:48;17.23;;;15.63;;
8596;SDS011;4336;49.310;8.646;2023-04-09T09:48:14;15.70;;;14.30;;
8596;SDS011;4336;49.310;8.646;2023-04-09T09:50:41;14.83;;;13.53;;
8596;SDS011;4336;49.310;8.646;2023-04-09T09:53:08;14.60;;;13.30;;
8596;SDS011;4336;49.310;8.646;2023-04-09T09:55:39;13.37;;;12.17;;
8596;SDS011;4336;49.310;8.646;2023-04-09T09:58:16;14.07;;;12.87;;
8596;SDS011;4336;49.310;8.646;2023-04-09T10:00:47;14.47;;;13.23;;
8596;SDS011;4336;49.310;8.646;2023-04-09T10:03:19;14.97;;;13.57;;
8596;SDS011;4336;49.310;8.646;2023-04-09T10:05:47;14.10;;;12.90;;
8596;SDS011;4336;49.310;8.646;2023-04-09T10:08:13;14.17;;;12.97;;
8596;SDS011;4336;49.310;8.646;2023-04-09T10:10:40;13.70;;;12.50;;
8596;SDS011;4336;49.310;8.646;2023-04-09T10:13:08;15.33;;;13.97;;
8596;SDS011;4336;49.310;8.646;2023-04-09T10:15:38;15.07;;;13.77;;
8596;SDS011;4336;49.310;8.646;2023-04-09T10:18:04;15.20;;;13.90;;
8596;SDS011;4336;49.310;8.646;2023-04-09T10:20:40;16.50;;;15.00;;
8596;SDS011;4336;49.310;8.646;2023-04-09T10:23:19;15.83;;;14.43;;
8596;SDS011;4336;49.310;8.646;2023-04-09T10:25:49;15.80;;;14.40;;
8596;SDS011;4336;49.310;8.646;2023-04-09T10:28:15;16.60;;;15.17;;
8596;SDS011;4336;49.310;8.646;2023-04-09T10:30:42;17.87;;;16.03;;
8596;SDS011;4336;49.310;8.646;2023-04-09T10:33:15;16.87;;;15.37;;
8596;SDS011;4336;49.310;8.646;2023-04-09T10:35:42;15.77;;;14.37;;
8596;SDS011;4336;49.310;8.646;2023-04-09T10:38:12;15.13;;;13.83;;
8596;SDS011;4336;49.310;8.646;2023-04-09T10:40:56;13.80;;;12.57;;
8596;SDS011;4336;49.310;8.646;2023-04-09T10:43:30;13.27;;;12.07;;
8596;SDS011;4336;49.310;8.646;2023-04-09T10:45:57;14.13;;;12.63;;
8596;SDS011;4336;49.310;8.646;2023-04-09T10:48:22;15.77;;;14.27;;
8596;SDS011;4336;49.310;8.646;2023-04-09T10:50:50;16.03;;;14.63;;
8596;SDS011;4336;49.310;8.646;2023-04-09T10:53:23;15.20;;;13.70;;
8596;SDS011;4336;49.310;8.646;2023-04-09T10:55:52;14.67;;;13.33;;
8596;SDS011;4336;49.310;8.646;2023-04-09T10:58:18;14.40;;;13.17;;
8596;SDS011;4336;49.310;8.646;2023-04-09T11:00:44;14.27;;;13.07;;
8596;SDS011;4336;49.310;8.646;2023-04-09T11:05:50;12.60;;;11.33;;
8596;SDS011;4336;49.310;8.646;2023-04-09T11:08:36;13.60;;;12.50;;
8596;SDS011;4336;49.310;8.646;2023-04-09T11:11:03;13.43;;;12.33;;
8596;SDS011;4336;49.310;8.646;2023-04-09T11:13:30;15.13;;;13.83;;
8596;SDS011;4336;49.310;8.646;2023-04-09T11:15:56;13.60;;;12.47;;
8596;SDS011;4336;49.310;8.646;2023-04-09T11:18:23;14.60;;;13.33;;
8596;SDS011;4336;49.310;8.646;2023-04-09T11:20:56;13.37;;;12.17;;
8596;SDS011;4336;49.310;8.646;2023-04-09T11:23:23;11.37;;;10.37;;
8596;SDS011;4336;49.310;8.646;2023-04-09T11:25:50;13.67;;;12.47;;
8596;SDS011;4336;49.310;8.646;2023-04-09T11:28:17;13.50;;;12.30;;
8596;SDS011;4336;49.310;8.646;2023-04-09T11:30:43;11.57;;;10.57;;
8596;SDS011;4336;49.310;8.646;2023-04-09T11:33:11;12.83;;;11.73;;
8596;SDS011;4336;49.310;8.646;2023-04-09T11:35:37;12.47;;;11.40;;
8596;SDS011;4336;49.310;8.646;2023-04-09T11:38:10;12.87;;;11.57;;
8596;SDS011;4336;49.310;8.646;2023-04-09T11:40:36;12.90;;;11.80;;
8596;SDS011;4336;49.310;8.646;2023-04-09T11:43:07;12.43;;;11.33;;
8596;SDS011;4336;49.310;8.646;2023-04-09T11:45:33;12.20;;;11.13;;
8596;SDS011;4336;49.310;8.646;2023-04-09T11:47:59;13.00;;;11.73;;
8596;SDS011;4336;49.310;8.646;2023-04-09T11:50:26;13.03;;;11.90;;
8596;SDS011;4336;49.310;8.646;2023-04-09T11:52:53;12.77;;;11.67;;
8596;SDS011;4336;49.310;8.646;2023-04-09T11:55:23;12.63;;;11.50;;
8596;SDS011;4336;49.310;8.646;2023-04-09T11:57:50;12.70;;;11.60;;
8596;SDS011;4336;49.310;8.646;2023-04-09T12:00:16;11.93;;;10.93;;
8596;SDS011;4336;49.310;8.646;2023-04-09T12:02:43;12.17;;;10.97;;
8596;SDS011;4336;49.310;8.646;2023-04-09T12:05:11;13.00;;;11.90;;
8596;SDS011;4336;49.310;8.646;2023-04-09T12:07:38;13.20;;;12.10;;
8596;SDS011;4336;49.310;8.646;2023-04-09T12:10:04;12.37;;;11.27;;
8596;SDS011;4336;49.310;8.646;2023-04-09T12:12:38;12.67;;;11.47;;
8596;SDS011;4336;49.310;8.646;2023-04-09T12:15:12;11.40;;;10.50;;
8596;SDS011;4336;49.310;8.646;2023-04-09T12:17:50;12.53;;;11.43;;
8596;SDS011;4336;49.310;8.646;2023-04-09T12:20:27;11.47;;;10.57;;
8596;SDS011;4336;49.310;8.646;2023-04-09T12:22:54;11.90;;;10.90;;
8596;SDS011;4336;49.310;8.646;2023-04-09T12:25:20;11.77;;;10.83;;
8596;SDS011;4336;49.310;8.646;2023-04-09T12:27:46;11.47;;;10.57;;
8596;SDS011;4336;49.310;8.646;2023-04-09T12:30:12;11.93;;;10.93;;
8596;SDS011;4336;49.310;8.646;2023-04-09T12:32:38;12.23;;;11.13;;
8596;SDS011;4336;49.310;8.646;2023-04-09T12:35:04;13.67;;;12.57;;
8596;SDS011;4336;49.310;8.646;2023-04-09T12:37:30;12.17;;;11.17;;
8596;SDS011;4336;49.310;8.646;2023-04-09T12:39:56;12.83;;;11.63;;
8596;SDS011;4336;49.310;8.646;2023-04-09T12:42:22;12.10;;;10.90;;
8596;SDS011;4336;49.310;8.646;2023-04-09T12:44:48;10.93;;;10.03;;
8596;SDS011;4336;49.310;8.646;2023-04-09T12:47:13;16.47;;;14.73;;
8596;SDS011;4336;49.310;8.646;2023-04-09T12:49:39;11.53;;;10.53;;
8596;SDS011;4336;49.310;8.646;2023-04-09T12:52:09;10.90;;;10.00;;
8596;SDS011;4336;49.310;8.646;2023-04-09T12:54:35;9.67;;;8.87;;
8596;SDS011;4336;49.310;8.646;2023-04-09T12:57:00;10.83;;;10.00;;
8596;SDS011;4336;49.310;8.646;2023-04-09T12:59:26;10.63;;;9.83;;
8596;SDS011;4336;49.310;8.646;2023-04-09T13:01:52;10.90;;;10.07;;
8596;SDS011;4336;49.310;8.646;2023-04-09T13:04:18;9.83;;;9.03;;
8596;SDS011;4336;49.310;8.646;2023-04-09T13:06:43;11.70;;;10.70;;
8596;SDS011;4336;49.310;8.646;2023-04-09T13:09:09;11.23;;;10.33;;
8596;SDS011;4336;49.310;8.646;2023-04-09T13:11:35;11.10;;;10.20;;
8596;SDS011;4336;49.310;8.646;2023-04-09T13:14:01;10.57;;;9.70;;
8596;SDS011;4336;49.310;8.646;2023-04-09T13:16:26;10.50;;;9.70;;
8596;SDS011;4336;49.310;8.646;2023-04-09T13:18:52;10.90;;;10.00;;
8596;SDS011;4336;49.310;8.646;2023-04-09T13:21:18;11.20;;;10.30;;
8596;SDS011;4336;49.310;8.646;2023-04-09T13:23:44;8.97;;;8.23;;
8596;SDS011;4336;49.310;8.646;2023-04-09T13:26:09;10.53;;;9.70;;
8596;SDS011;4336;49.310;8.646;2023-04-09T13:28:35;10.87;;;9.97;;
8596;SDS011;4336;49.310;8.646;2023-04-09T13:31:01;11.17;;;10.27;;
8596;SDS011;4336;49.310;8.646;2023-04-09T13:33:27;10.87;;;9.77;;
8596;SDS011;4336;49.310;8.646;2023-04-09T13:35:53;10.47;;;9.57;;
8596;SDS011;4336;49.310;8.646;2023-04-09T13:38:18;12.00;;;11.00;;
8596;SDS011;4336;49.310;8.646;2023-04-09T13:40:44;10.87;;;10.07;;
8596;SDS011;4336;49.310;8.646;2023-04-09T13:43:10;10.30;;;9.50;;
8596;SDS011;4336;49.310;8.646;2023-04-09T13:45:36;8.90;;;8.20;;
8596;SDS011;4336;49.310;8.646;2023-04-09T13:48:01;10.57;;;9.67;;
8596;SDS011;4336;49.310;8.646;2023-04-09T13:50:27;10.47;;;9.57;;
8596;SDS011;4336;49.310;8.646;2023-04-09T13:52:53;10.40;;;9.50;;
8596;SDS011;4336;49.310;8.646;2023-04-09T13:55:19;9.23;;;8.53;;
8596;SDS011;4336;49.310;8.646;2023-04-09T13:57:45;10.30;;;9.50;;
8596;SDS011;4336;49.310;8.646;2023-04-09T14:00:10;10.00;;;9.20;;
8596;SDS011;4336;49.310;8.646;2023-04-09T14:02:37;10.83;;;9.73;;
8596;SDS011;4336;49.310;8.646;2023-04-09T14:05:02;14.00;;;12.90;;
8596;SDS011;4336;49.310;8.646;2023-04-09T14:07:28;14.30;;;13.10;;
8596;SDS011;4336;49.310;8.646;2023-04-09T14:09:55;10.23;;;9.43;;
8596;SDS011;4336;49.310;8.646;2023-04-09T14:12:20;10.17;;;9.37;;
8596;SDS011;4336;49.310;8.646;2023-04-09T14:14:46;10.10;;;9.30;;
8596;SDS011;4336;49.310;8.646;2023-04-09T14:17:13;10.40;;;9.60;;
8596;SDS011;4336;49.310;8.646;2023-04-09T14:19:38;10.57;;;9.77;;
8596;SDS011;4336;49.310;8.646;2023-04-09T14:22:04;9.47;;;8.67;;
8596;SDS011;4336;49.310;8.646;2023-04-09T14:24:31;8.70;;;7.90;;
8596;SDS011;4336;49.310;8.646;2023-04-09T14:27:04;9.40;;;8.70;;
8596;SDS011;4336;49.310;8.646;2023-04-09T14:29:30;9.97;;;9.20;;
8596;SDS011;4336;49.310;8.646;2023-04-09T14:31:56;9.77;;;9.07;;
8596;SDS011;4336;49.310;8.646;2023-04-09T14:34:23;10.57;;;9.77;;
8596;SDS011;4336;49.310;8.646;2023-04-09T14:36:49;9.77;;;9.07;;
8596;SDS011;4336;49.310;8.646;2023-04-09T14:39:15;9.50;;;8.80;;
8596;SDS011;4336;49.310;8.646;2023-04-09T14:41:42;9.77;;;9.03;;
8596;SDS011;4336;49.310;8.646;2023-04-09T14:44:07;9.20;;;8.43;;
8596;SDS011;4336;49.310;8.646;2023-04-09T14:46:34;9.87;;;9.07;;
8596;SDS011;4336;49.310;8.646;2023-04-09T14:49:00;9.77;;;8.97;;
8596;SDS011;4336;49.310;8.646;2023-04-09T14:51:27;9.47;;;8.70;;
8596;SDS011;4336;49.310;8.646;2023-04-09T14:53:54;10.20;;;9.20;;
8596;SDS011;4336;49.310;8.646;2023-04-09T14:56:21;10.27;;;9.37;;
8596;SDS011;4336;49.310;8.646;2023-04-09T14:58:49;11.07;;;10.00;;
8596;SDS011;4336;49.310;8.646;2023-04-09T15:01:15;10.33;;;9.47;;
8596;SDS011;4336;49.310;8.646;2023-04-09T15:03:42;10.47;;;9.60;;
8596;SDS011;4336;49.310;8.646;2023-04-09T15:06:09;10.37;;;9.57;;